sensor_id;sensor_type;location;lat;lon;timestamp;temperature;humidity
15413;DHT22;7805;49.554;7.632;2023-04-01T00:00:16;11.20;99.90
15413;DHT22;7805;49.554;7.632;2023-04-01T00:02:42;11.20;99.90
15413;DHT22;7805;49.554;7.632;2023-04-01T00:05:08;11.20;99.90
15413;DHT22;7805;49.554;7.632;2023-04-01T00:07:38;11.30;99.90
15413;DHT22;7805;49.554;7.632;2023-04-01T00:10:06;11.30;99.90
15413;DHT22;7805;49.554;7.632;2023-04-01T00:12:32;11.40;99.90
15413;DHT22;7805;49.554;7.632;2023-04-01T00:14:58;11.30;99.90
15413;DHT22;7805;49.554;7.632;2023-04-01T00:17:24;11.30;99.90
15413;DHT22;7805;49.554;7.632;2023-04-01T00:19:50;11.40;99.90
15413;DHT22;7805;49.554;7.632;2023-04-01T00:22:15;11.40;99.90
15413;DHT22;7805;49.554;7.632;2023-04-01T00:24:41;11.40;99.90
15413;DHT22;7805;49.554;7.632;2023-04-01T00:27:07;11.30;99.90
15413;DHT22;7805;49.554;7.632;2023-04-01T00:29:34;11.30;99.90
15413;DHT22;7805;49.554;7.632;2023-04-01T00:32:00;11.30;99.90
15413;DHT22;7805;49.554;7.632;2023-04-01T00:34:25;11.30;99.90
15413;DHT22;7805;49.554;7.632;2023-04-01T00:36:52;11.30;99.90
15413;DHT22;7805;49.554;7.632;2023-04-01T00:39:18;11.30;99.90
15413;DHT22;7805;49.554;7.632;2023-04-01T00:41:44;11.30;99.90
15413;DHT22;7805;49.554;7.632;2023-04-01T00:44:25;11.30;99.90
15413;DHT22;7805;49.554;7.632;2023-04-01T00:46:51;11.30;99.90
15413;DHT22;7805;49.554;7.632;2023-04-01T00:49:23;11.20;99.90
15413;DHT22;7805;49.554;7.632;2023-04-01T00:51:54;9.90;99.90
15413;DHT22;7805;49.554;7.632;2023-04-01T00:54:22;11.20;99.90
15413;DHT22;7805;49.554;7.632;2023-04-01T00:57:00;11.20;99.90
15413;DHT22;7805;49.554;7.632;2023-04-01T00:59:48;11.10;99.90
15413;DHT22;7805;49.554;7.632;2023-04-01T01:02:15;11.20;99.90
15413;DHT22;7805;49.554;7.632;2023-04-01T01:04:41;11.20;99.90
15413;DHT22;7805;49.554;7.632;2023-04-01T01:17:45;11.20;99.90
15413;DHT22;7805;49.554;7.632;2023-04-01T01:31:50;11.20;99.90
15413;DHT22;7805;49.554;7.632;2023-04-01T01:37:01;11.20;99.90
15413;DHT22;7805;49.554;7.632;2023-04-01T01:39:31;11.10;99.90
15413;DHT22;7805;49.554;7.632;2023-04-01T01:42:02;11.10;99.90
15413;DHT22;7805;49.554;7.632;2023-04-01T01:44:30;11.00;99.90
15413;DHT22;7805;49.554;7.632;2023-04-01T01:46:58;11.00;99.90
15413;DHT22;7805;49.554;7.632;2023-04-01T01:49:25;11.00;99.90
15413;DHT22;7805;49.554;7.632;2023-04-01T01:51:52;11.00;99.90
15413;DHT22;7805;49.554;7.632;2023-04-01T01:54:18;11.00;99.90
15413;DHT22;7805;49.554;7.632;2023-04-01T01:56:47;10.90;99.90
15413;DHT22;7805;49.554;7.632;2023-04-01T01:59:15;10.90;99.90
15413;DHT22;7805;49.554;7.632;2023-04-01T02:01:48;10.90;99.90
15413;DHT22;7805;49.554;7.632;2023-04-01T02:04:16;10.90;99.90
15413;DHT22;7805;49.554;7.632;2023-04-01T02:06:47;11.00;99.90
15413;DHT22;7805;49.554;7.632;2023-04-01T02:09:15;11.20;99.90
15413;DHT22;7805;49.554;7.632;2023-04-01T02:11:59;10.90;99.90
15413;DHT22;7805;49.554;7.632;2023-04-01T02:14:29;10.90;99.90
15413;DHT22;7805;49.554;7.632;2023-04-01T02:17:15;10.90;99.90
15413;DHT22;7805;49.554;7.632;2023-04-01T02:20:09;10.90;99.90
15413;DHT22;7805;49.554;7.632;2023-04-01T02:22:38;10.90;99.90
15413;DHT22;7805;49.554;7.632;2023-04-01T02:25:12;10.90;99.90
15413;DHT22;7805;49.554;7.632;2023-04-01T02:27:38;10.80;99.90
15413;DHT22;7805;49.554;7.632;2023-04-01T02:30:05;10.90;99.90
15413;DHT22;7805;49.554;7.632;2023-04-01T02:32:33;10.90;99.90
15413;DHT22;7805;49.554;7.632;2023-04-01T02:35:00;10.80;99.90
15413;DHT22;7805;49.554;7.632;2023-04-01T02:37:28;10.90;99.90
15413;DHT22;7805;49.554;7.632;2023-04-01T02:39:54;10.90;99.90
15413;DHT22;7805;49.554;7.632;2023-04-01T02:42:19;10.90;99.90
15413;DHT22;7805;49.554;7.632;2023-04-01T02:44:45;10.90;99.90
15413;DHT22;7805;49.554;7.632;2023-04-01T02:47:11;10.90;99.90
15413;DHT22;7805;49.554;7.632;2023-04-01T02:49:36;10.80;99.90
15413;DHT22;7805;49.554;7.632;2023-04-01T02:52:02;10.80;99.90
15413;DHT22;7805;49.554;7.632;2023-04-01T02:54:27;10.80;99.90
15413;DHT22;7805;49.554;7.632;2023-04-01T02:56:53;10.80;99.90
15413;DHT22;7805;49.554;7.632;2023-04-01T02:59:19;10.80;99.90
15413;DHT22;7805;49.554;7.632;2023-04-01T03:01:44;10.80;99.90
15413;DHT22;7805;49.554;7.632;2023-04-01T03:04:10;10.80;99.90
15413;DHT22;7805;49.554;7.632;2023-04-01T03:06:35;10.80;99.90
15413;DHT22;7805;49.554;7.632;2023-04-01T03:09:01;10.80;99.90
15413;DHT22;7805;49.554;7.632;2023-04-01T03:11:27;10.70;99.90
15413;DHT22;7805;49.554;7.632;2023-04-01T03:13:53;10.70;99.90
15413;DHT22;7805;49.554;7.632;2023-04-01T03:16:18;10.80;99.90
15413;DHT22;7805;49.554;7.632;2023-04-01T03:18:44;10.70;99.90
15413;DHT22;7805;49.554;7.632;2023-04-01T03:21:21;10.70;99.90
15413;DHT22;7805;49.554;7.632;2023-04-01T03:23:47;10.70;99.90
15413;DHT22;7805;49.554;7.632;2023-04-01T03:26:13;10.70;99.90
15413;DHT22;7805;49.554;7.632;2023-04-01T03:28:39;10.70;99.90
15413;DHT22;7805;49.554;7.632;2023-04-01T03:31:05;10.70;99.90
15413;DHT22;7805;49.554;7.632;2023-04-01T03:33:31;10.80;99.90
15413;DHT22;7805;49.554;7.632;2023-04-01T03:35:57;10.80;99.90
15413;DHT22;7805;49.554;7.632;2023-04-01T03:38:23;10.70;99.90
15413;DHT22;7805;49.554;7.632;2023-04-01T03:40:49;10.70;99.90
15413;DHT22;7805;49.554;7.632;2023-04-01T03:43:14;10.70;99.90
15413;DHT22;7805;49.554;7.632;2023-04-01T03:45:50;10.60;99.90
15413;DHT22;7805;49.554;7.632;2023-04-01T03:48:16;10.60;99.90
15413;DHT22;7805;49.554;7.632;2023-04-01T03:50:42;10.60;99.90
15413;DHT22;7805;49.554;7.632;2023-04-01T03:53:07;10.60;99.90
15413;DHT22;7805;49.554;7.632;2023-04-01T03:55:33;10.60;99.90
15413;DHT22;7805;49.554;7.632;2023-04-01T03:58:00;11.40;99.90
15413;DHT22;7805;49.554;7.632;2023-04-01T04:00:30;10.60;99.90
15413;DHT22;7805;49.554;7.632;2023-04-01T04:02:56;10.60;99.90
15413;DHT22;7805;49.554;7.632;2023-04-01T04:05:25;10.60;99.90
15413;DHT22;7805;49.554;7.632;2023-04-01T04:07:51;10.50;99.90
15413;DHT22;7805;49.554;7.632;2023-04-01T04:10:17;10.60;99.90
15413;DHT22;7805;49.554;7.632;2023-04-01T04:12:43;10.50;99.90
15413;DHT22;7805;49.554;7.632;2023-04-01T04:15:09;10.50;99.90
15413;DHT22;7805;49.554;7.632;2023-04-01T04:17:35;10.50;99.90
15413;DHT22;7805;49.554;7.632;2023-04-01T04:20:01;10.50;99.90
15413;DHT22;7805;49.554;7.632;2023-04-01T04:22:26;10.50;99.90
15413;DHT22;7805;49.554;7.632;2023-04-01T04:24:52;10.40;99.90
15413;DHT22;7805;49.554;7.632;2023-04-01T04:27:18;10.40;99.90
15413;DHT22;7805;49.554;7.632;2023-04-01T04:29:43;10.40;99.90
15413;DHT22;7805;49.554;7.632;2023-04-01T04:32:09;10.40;99.90
15413;DHT22;7805;49.554;7.632;2023-04-01T04:34:34;10.30;99.90
15413;DHT22;7805;49.554;7.632;2023-04-01T04:37:00;10.40;99.90
15413;DHT22;7805;49.554;7.632;2023-04-01T04:39:26;10.40;99.90
15413;DHT22;7805;49.554;7.632;2023-04-01T04:41:51;10.30;99.90
15413;DHT22;7805;49.554;7.632;2023-04-01T04:44:17;10.30;99.90
15413;DHT22;7805;49.554;7.632;2023-04-01T04:46:43;10.30;99.90
15413;DHT22;7805;49.554;7.632;2023-04-01T04:49:08;10.20;99.90
15413;DHT22;7805;49.554;7.632;2023-04-01T04:51:34;10.20;99.90
15413;DHT22;7805;49.554;7.632;2023-04-01T04:54:02;10.20;99.90
15413;DHT22;7805;49.554;7.632;2023-04-01T04:56:28;10.20;99.90
15413;DHT22;7805;49.554;7.632;2023-04-01T04:58:54;10.20;99.90
15413;DHT22;7805;49.554;7.632;2023-04-01T05:01:19;10.20;99.90
15413;DHT22;7805;49.554;7.632;2023-04-01T05:03:45;10.20;99.90
15413;DHT22;7805;49.554;7.632;2023-04-01T05:06:13;10.10;99.90
15413;DHT22;7805;49.554;7.632;2023-04-01T05:08:39;10.20;99.90
15413;DHT22;7805;49.554;7.632;2023-04-01T05:11:07;10.20;99.90
15413;DHT22;7805;49.554;7.632;2023-04-01T05:13:35;10.20;99.90
15413;DHT22;7805;49.554;7.632;2023-04-01T05:16:01;10.20;99.90
15413;DHT22;7805;49.554;7.632;2023-04-01T05:18:27;10.20;99.90
15413;DHT22;7805;49.554;7.632;2023-04-01T05:20:53;10.20;99.90
15413;DHT22;7805;49.554;7.632;2023-04-01T05:23:21;10.10;99.90
15413;DHT22;7805;49.554;7.632;2023-04-01T05:25:50;10.10;99.90
15413;DHT22;7805;49.554;7.632;2023-04-01T05:28:19;10.10;99.90
15413;DHT22;7805;49.554;7.632;2023-04-01T05:30:45;10.10;99.90
15413;DHT22;7805;49.554;7.632;2023-04-01T05:33:12;10.00;99.90
15413;DHT22;7805;49.554;7.632;2023-04-01T05:35:38;10.00;99.90
15413;DHT22;7805;49.554;7.632;2023-04-01T05:38:04;10.10;99.90
15413;DHT22;7805;49.554;7.632;2023-04-01T05:40:30;10.10;99.90
15413;DHT22;7805;49.554;7.632;2023-04-01T05:42:56;10.10;99.90
15413;DHT22;7805;49.554;7.632;2023-04-01T05:45:22;10.10;99.90
15413;DHT22;7805;49.554;7.632;2023-04-01T05:47:47;10.20;99.90
15413;DHT22;7805;49.554;7.632;2023-04-01T05:50:13;10.10;99.90
15413;DHT22;7805;49.554;7.632;2023-04-01T05:52:38;10.10;99.90
15413;DHT22;7805;49.554;7.632;2023-04-01T05:55:04;10.10;99.90
15413;DHT22;7805;49.554;7.632;2023-04-01T05:57:30;10.20;99.90
15413;DHT22;7805;49.554;7.632;2023-04-01T05:59:56;10.10;99.90
15413;DHT22;7805;49.554;7.632;2023-04-01T06:02:22;10.10;99.90
15413;DHT22;7805;49.554;7.632;2023-04-01T06:04:47;10.00;99.90
15413;DHT22;7805;49.554;7.632;2023-04-01T06:07:17;10.00;99.90
15413;DHT22;7805;49.554;7.632;2023-04-01T06:09:44;10.10;99.90
15413;DHT22;7805;49.554;7.632;2023-04-01T06:20:40;10.10;99.90
15413;DHT22;7805;49.554;7.632;2023-04-01T06:28:50;10.10;99.90
15413;DHT22;7805;49.554;7.632;2023-04-01T06:53:03;10.50;99.90
15413;DHT22;7805;49.554;7.632;2023-04-01T06:58:17;10.70;99.90
15413;DHT22;7805;49.554;7.632;2023-04-01T07:00:46;10.70;99.90
15413;DHT22;7805;49.554;7.632;2023-04-01T07:06:01;10.80;99.90
15413;DHT22;7805;49.554;7.632;2023-04-01T07:08:29;10.80;99.90
15413;DHT22;7805;49.554;7.632;2023-04-01T07:10:57;10.80;99.90
15413;DHT22;7805;49.554;7.632;2023-04-01T07:13:48;10.90;99.90
15413;DHT22;7805;49.554;7.632;2023-04-01T07:18:54;11.00;99.90
15413;DHT22;7805;49.554;7.632;2023-04-01T07:21:41;10.90;99.90
15413;DHT22;7805;49.554;7.632;2023-04-01T07:24:17;10.90;99.90
15413;DHT22;7805;49.554;7.632;2023-04-01T07:26:46;10.80;99.90
15413;DHT22;7805;49.554;7.632;2023-04-01T07:29:14;10.70;99.90
15413;DHT22;7805;49.554;7.632;2023-04-01T07:34:45;10.80;99.90
15413;DHT22;7805;49.554;7.632;2023-04-01T07:50:56;10.90;99.90
15413;DHT22;7805;49.554;7.632;2023-04-01T07:53:40;11.00;99.90
15413;DHT22;7805;49.554;7.632;2023-04-01T07:56:14;11.00;99.90
15413;DHT22;7805;49.554;7.632;2023-04-01T08:07:40;11.30;99.90
15413;DHT22;7805;49.554;7.632;2023-04-01T08:15:52;11.30;99.90
15413;DHT22;7805;49.554;7.632;2023-04-01T08:21:24;11.40;99.90
15413;DHT22;7805;49.554;7.632;2023-04-01T08:23:52;11.30;99.90
15413;DHT22;7805;49.554;7.632;2023-04-01T08:26:39;11.40;99.90
15413;DHT22;7805;49.554;7.632;2023-04-01T08:34:36;11.30;99.90
15413;DHT22;7805;49.554;7.632;2023-04-01T08:37:07;12.90;99.90
15413;DHT22;7805;49.554;7.632;2023-04-01T09:07:43;12.00;99.90
15413;DHT22;7805;49.554;7.632;2023-04-01T09:24:29;12.10;99.90
15413;DHT22;7805;49.554;7.632;2023-04-01T09:27:05;12.10;99.90
15413;DHT22;7805;49.554;7.632;2023-04-01T09:35:21;11.90;99.90
15413;DHT22;7805;49.554;7.632;2023-04-01T09:38:00;12.00;99.90
15413;DHT22;7805;49.554;7.632;2023-04-01T09:49:24;11.80;99.90
15413;DHT22;7805;49.554;7.632;2023-04-01T09:52:31;11.80;99.90
15413;DHT22;7805;49.554;7.632;2023-04-01T10:12:25;12.20;99.90
15413;DHT22;7805;49.554;7.632;2023-04-01T10:26:23;12.10;99.90
15413;DHT22;7805;49.554;7.632;2023-04-01T10:43:36;12.30;99.90
15413;DHT22;7805;49.554;7.632;2023-04-01T10:52:38;12.50;99.90
15413;DHT22;7805;49.554;7.632;2023-04-01T11:12:18;12.20;99.90
15413;DHT22;7805;49.554;7.632;2023-04-01T11:15:13;12.20;99.90
15413;DHT22;7805;49.554;7.632;2023-04-01T11:26:16;12.40;99.90
15413;DHT22;7805;49.554;7.632;2023-04-01T11:29:15;12.40;99.90
15413;DHT22;7805;49.554;7.632;2023-04-01T11:37:45;12.50;99.90
15413;DHT22;7805;49.554;7.632;2023-04-01T11:40:40;12.50;99.90
15413;DHT22;7805;49.554;7.632;2023-04-01T11:54:52;12.50;99.90
15413;DHT22;7805;49.554;7.632;2023-04-01T11:57:55;12.50;99.90
15413;DHT22;7805;49.554;7.632;2023-04-01T12:03:17;12.50;99.90
15413;DHT22;7805;49.554;7.632;2023-04-01T12:14:43;12.80;99.90
15413;DHT22;7805;49.554;7.632;2023-04-01T12:36:23;12.50;99.90
15413;DHT22;7805;49.554;7.632;2023-04-01T12:41:59;12.40;99.90
15413;DHT22;7805;49.554;7.632;2023-04-01T12:44:33;12.50;99.90
15413;DHT22;7805;49.554;7.632;2023-04-01T12:55:49;12.50;99.90
15413;DHT22;7805;49.554;7.632;2023-04-01T12:58:35;12.60;99.90
15413;DHT22;7805;49.554;7.632;2023-04-01T13:04:26;12.40;99.90
15413;DHT22;7805;49.554;7.632;2023-04-01T13:07:08;12.50;99.90
15413;DHT22;7805;49.554;7.632;2023-04-01T13:15:13;12.60;99.90
15413;DHT22;7805;49.554;7.632;2023-04-01T13:28:22;12.60;99.90
15413;DHT22;7805;49.554;7.632;2023-04-01T13:30:57;12.50;99.90
15413;DHT22;7805;49.554;7.632;2023-04-01T13:38:48;12.40;99.90
15413;DHT22;7805;49.554;7.632;2023-04-01T13:44:39;12.50;99.90
15413;DHT22;7805;49.554;7.632;2023-04-01T13:47:15;12.60;99.90
15413;DHT22;7805;49.554;7.632;2023-04-01T13:49:48;12.50;99.90
15413;DHT22;7805;49.554;7.632;2023-04-01T13:59:07;12.60;99.90
15413;DHT22;7805;49.554;7.632;2023-04-01T14:09:35;12.40;99.90
15413;DHT22;7805;49.554;7.632;2023-04-01T14:12:35;12.40;99.90
15413;DHT22;7805;49.554;7.632;2023-04-01T14:20:46;12.60;99.90
15413;DHT22;7805;49.554;7.632;2023-04-01T14:26:01;12.50;99.90
15413;DHT22;7805;49.554;7.632;2023-04-01T14:42:37;12.80;99.90
15413;DHT22;7805;49.554;7.632;2023-04-01T14:50:28;12.60;99.90
15413;DHT22;7805;49.554;7.632;2023-04-01T14:58:14;12.50;99.90
15413;DHT22;7805;49.554;7.632;2023-04-01T15:03:18;12.60;99.90
15413;DHT22;7805;49.554;7.632;2023-04-01T15:08:54;12.30;99.90
15413;DHT22;7805;49.554;7.632;2023-04-01T15:14:23;12.40;99.90
15413;DHT22;7805;49.554;7.632;2023-04-01T15:17:05;12.20;99.90
15413;DHT22;7805;49.554;7.632;2023-04-01T15:30:17;12.70;99.90
15413;DHT22;7805;49.554;7.632;2023-04-01T15:36:09;12.90;99.90
15413;DHT22;7805;49.554;7.632;2023-04-01T15:41:29;12.80;99.90
15413;DHT22;7805;49.554;7.632;2023-04-01T15:44:01;12.80;99.90
15413;DHT22;7805;49.554;7.632;2023-04-01T15:46:44;12.80;99.90
15413;DHT22;7805;49.554;7.632;2023-04-01T15:54:39;12.50;99.90
15413;DHT22;7805;49.554;7.632;2023-04-01T16:00:25;12.40;99.90
15413;DHT22;7805;49.554;7.632;2023-04-01T16:06:13;12.30;99.90
15413;DHT22;7805;49.554;7.632;2023-04-01T16:11:42;12.10;99.90
15413;DHT22;7805;49.554;7.632;2023-04-01T16:14:28;12.20;99.90
15413;DHT22;7805;49.554;7.632;2023-04-01T16:22:32;12.00;99.90
15413;DHT22;7805;49.554;7.632;2023-04-01T16:25:36;12.00;99.90
15413;DHT22;7805;49.554;7.632;2023-04-01T16:44:55;12.00;99.90
15413;DHT22;7805;49.554;7.632;2023-04-01T16:47:46;12.00;99.90
15413;DHT22;7805;49.554;7.632;2023-04-01T16:50:21;12.00;99.90
15413;DHT22;7805;49.554;7.632;2023-04-01T16:55:18;11.90;99.90
15413;DHT22;7805;49.554;7.632;2023-04-01T16:57:55;11.90;99.90
15413;DHT22;7805;49.554;7.632;2023-04-01T17:00:36;11.90;99.90
15413;DHT22;7805;49.554;7.632;2023-04-01T17:03:25;11.90;99.90
15413;DHT22;7805;49.554;7.632;2023-04-01T17:11:57;12.00;99.90
15413;DHT22;7805;49.554;7.632;2023-04-01T17:19:56;11.80;99.90
15413;DHT22;7805;49.554;7.632;2023-04-01T17:25:29;11.90;99.90
15413;DHT22;7805;49.554;7.632;2023-04-01T17:36:18;11.80;99.90
15413;DHT22;7805;49.554;7.632;2023-04-01T17:39:16;11.90;99.90
15413;DHT22;7805;49.554;7.632;2023-04-01T17:42:15;11.90;99.90
15413;DHT22;7805;49.554;7.632;2023-04-01T17:44:50;11.90;99.90
15413;DHT22;7805;49.554;7.632;2023-04-01T17:50:14;11.70;99.90
15413;DHT22;7805;49.554;7.632;2023-04-01T17:53:55;11.70;99.90
15413;DHT22;7805;49.554;7.632;2023-04-01T17:56:05;13.60;99.90
15413;DHT22;7805;49.554;7.632;2023-04-01T17:58:38;11.80;99.90
15413;DHT22;7805;49.554;7.632;2023-04-01T18:01:26;11.70;99.90
15413;DHT22;7805;49.554;7.632;2023-04-01T18:04:17;11.70;99.90
15413;DHT22;7805;49.554;7.632;2023-04-01T18:07:30;11.70;99.90
15413;DHT22;7805;49.554;7.632;2023-04-01T18:13:06;11.60;99.90
15413;DHT22;7805;49.554;7.632;2023-04-01T18:20:56;11.90;99.90
15413;DHT22;7805;49.554;7.632;2023-04-01T18:23:43;11.30;99.90
15413;DHT22;7805;49.554;7.632;2023-04-01T18:26:28;11.30;99.90
15413;DHT22;7805;49.554;7.632;2023-04-01T18:31:48;11.20;99.90
15413;DHT22;7805;49.554;7.632;2023-04-01T18:34:43;11.20;99.90
15413;DHT22;7805;49.554;7.632;2023-04-01T18:37:34;11.20;99.90
15413;DHT22;7805;49.554;7.632;2023-04-01T18:40:24;11.20;99.90
15413;DHT22;7805;49.554;7.632;2023-04-01T18:43:27;11.20;99.90
15413;DHT22;7805;49.554;7.632;2023-04-01T18:46:01;11.20;99.90
15413;DHT22;7805;49.554;7.632;2023-04-01T18:54:11;11.20;99.90
15413;DHT22;7805;49.554;7.632;2023-04-01T18:56:41;11.20;99.90
15413;DHT22;7805;49.554;7.632;2023-04-01T18:59:20;11.20;99.90
15413;DHT22;7805;49.554;7.632;2023-04-01T19:07:48;11.20;99.90
15413;DHT22;7805;49.554;7.632;2023-04-01T19:12:52;11.20;99.90
15413;DHT22;7805;49.554;7.632;2023-04-01T19:15:27;13.60;99.90
15413;DHT22;7805;49.554;7.632;2023-04-01T19:20:34;11.30;99.90
15413;DHT22;7805;49.554;7.632;2023-04-01T19:25:51;11.60;99.90
15413;DHT22;7805;49.554;7.632;2023-04-01T19:31:37;11.70;99.90
15413;DHT22;7805;49.554;7.632;2023-04-01T19:53:55;11.70;99.90
15413;DHT22;7805;49.554;7.632;2023-04-01T19:56:38;11.70;99.90
15413;DHT22;7805;49.554;7.632;2023-04-01T19:59:47;11.70;99.90
15413;DHT22;7805;49.554;7.632;2023-04-01T20:04:49;11.60;99.90
15413;DHT22;7805;49.554;7.632;2023-04-01T20:07:28;11.60;99.90
15413;DHT22;7805;49.554;7.632;2023-04-01T20:15:44;11.50;99.90
15413;DHT22;7805;49.554;7.632;2023-04-01T20:18:25;11.40;99.90
15413;DHT22;7805;49.554;7.632;2023-04-01T20:23:39;11.30;99.90
15413;DHT22;7805;49.554;7.632;2023-04-01T20:26:12;11.30;99.90
15413;DHT22;7805;49.554;7.632;2023-04-01T20:29:02;11.30;99.90
15413;DHT22;7805;49.554;7.632;2023-04-01T20:31:43;11.30;99.90
15413;DHT22;7805;49.554;7.632;2023-04-01T20:34:42;11.30;99.90
15413;DHT22;7805;49.554;7.632;2023-04-01T20:56:08;11.30;99.90
15413;DHT22;7805;49.554;7.632;2023-04-01T21:04:50;11.20;99.90
15413;DHT22;7805;49.554;7.632;2023-04-01T21:07:25;11.10;99.90
15413;DHT22;7805;49.554;7.632;2023-04-01T21:10:22;11.30;99.90
15413;DHT22;7805;49.554;7.632;2023-04-01T21:13:03;11.20;99.90
15413;DHT22;7805;49.554;7.632;2023-04-01T21:21:22;11.10;99.90
15413;DHT22;7805;49.554;7.632;2023-04-01T21:49:04;11.10;99.90
15413;DHT22;7805;49.554;7.632;2023-04-01T21:51:04;11.10;99.90
15413;DHT22;7805;49.554;7.632;2023-04-01T22:05:21;11.00;99.90
15413;DHT22;7805;49.554;7.632;2023-04-01T22:10:51;10.90;99.90
15413;DHT22;7805;49.554;7.632;2023-04-01T22:13:35;10.90;99.90
15413;DHT22;7805;49.554;7.632;2023-04-01T22:16:16;10.90;99.90
15413;DHT22;7805;49.554;7.632;2023-04-01T22:18:51;10.90;99.90
15413;DHT22;7805;49.554;7.632;2023-04-01T22:26:25;10.80;99.90
15413;DHT22;7805;49.554;7.632;2023-04-01T22:29:08;10.80;99.90
15413;DHT22;7805;49.554;7.632;2023-04-01T22:31:49;10.80;99.90
15413;DHT22;7805;49.554;7.632;2023-04-01T22:42:36;10.90;99.90
15413;DHT22;7805;49.554;7.632;2023-04-01T22:45:28;11.00;99.90
15413;DHT22;7805;49.554;7.632;2023-04-01T22:50:40;10.90;99.90
15413;DHT22;7805;49.554;7.632;2023-04-01T22:55:44;10.80;99.90
15413;DHT22;7805;49.554;7.632;2023-04-01T22:58:17;10.80;99.90
15413;DHT22;7805;49.554;7.632;2023-04-01T23:00:48;10.80;99.90
15413;DHT22;7805;49.554;7.632;2023-04-01T23:03:35;10.80;99.90
15413;DHT22;7805;49.554;7.632;2023-04-01T23:06:06;10.80;99.90
15413;DHT22;7805;49.554;7.632;2023-04-01T23:16:49;10.80;99.90
15413;DHT22;7805;49.554;7.632;2023-04-01T23:22:11;10.80;99.90
15413;DHT22;7805;49.554;7.632;2023-04-01T23:24:59;10.90;99.90
15413;DHT22;7805;49.554;7.632;2023-04-01T23:27:35;11.00;99.90
15413;DHT22;7805;49.554;7.632;2023-04-01T23:30:03;10.90;99.90
15413;DHT22;7805;49.554;7.632;2023-04-01T23:32:29;10.80;99.90
15413;DHT22;7805;49.554;7.632;2023-04-01T23:34:57;10.90;99.90
15413;DHT22;7805;49.554;7.632;2023-04-01T23:37:23;10.90;99.90
15413;DHT22;7805;49.554;7.632;2023-04-01T23:39:59;10.80;99.90
15413;DHT22;7805;49.554;7.632;2023-04-01T23:42:41;10.70;99.90
15413;DHT22;7805;49.554;7.632;2023-04-01T23:45:16;10.70;99.90
15413;DHT22;7805;49.554;7.632;2023-04-01T23:47:45;10.80;99.90
15413;DHT22;7805;49.554;7.632;2023-04-01T23:50:24;10.80;99.90
15413;DHT22;7805;49.554;7.632;2023-04-01T23:53:17;10.90;99.90
15413;DHT22;7805;49.554;7.632;2023-04-01T23:55:44;10.90;99.90
